Time;durP1;ratioP1;P1;durP2;ratioP2;P2;SDS_P1;SDS_P2;PMS_P1;PMS_P2;Temp;Humidity;BMP_temperature;BMP_pressure;BME280_temperature;BME280_humidity;BME280_pressure;Samples;Min_cycle;Max_cycle;Signal;HPM_P1;HPM_P2
2023/09/12 00:05:01;;;;;;;50.60;34.10;;;20.10;99.90;;;;;;4933956;29;20402;-75
2023/09/12 00:07:27;;;;;;;49.07;34.00;;;20.10;99.90;;;;;;4983475;28;20499;-74
2023/09/12 00:09:53;;;;;;;47.97;36.30;;;20.00;99.90;;;;;;4993998;28;20407;-73
2023/09/12 00:12:53;;;;;;;47.00;34.03;;;19.90;99.90;;;;;;4976665;28;20451;-75
2023/09/12 00:19:09;;;;;;;45.63;32.37;;;20.00;99.90;;;;;;4993357;28;21015;-75
2023/09/12 00:21:54;;;;;;;47.03;32.67;;;20.00;99.90;;;;;;4993327;28;20415;-75
2023/09/12 00:30:53;;;;;;;49.00;33.90;;;19.80;99.90;;;;;;4950708;29;20433;-75
2023/09/12 00:47:41;;;;;;;42.20;30.70;;;19.90;99.90;;;;;;4950226;29;20473;-73
2023/09/12 00:50:43;;;;;;;43.87;31.50;;;19.90;99.90;;;;;;4951849;29;20421;-74
2023/09/12 00:53:28;;;;;;;46.33;30.30;;;19.80;99.90;;;;;;4952538;29;20953;-73
2023/09/12 00:55:57;;;;;;;47.87;31.67;;;19.80;1.00;;;;;;4935709;29;20490;-74
2023/09/12 00:58:25;;;;;;;47.27;31.33;;;19.90;1.00;;;;;;4970378;28;20461;-73
2023/09/12 01:04:32;;;;;;;38.50;30.47;;;19.80;1.00;;;;;;4951903;29;20848;-75
2023/09/12 01:06:59;;;;;;;46.47;32.40;;;19.90;1.00;;;;;;4951264;28;20465;-73
2023/09/12 01:10:02;;;;;;;43.07;31.67;;;19.80;1.00;;;;;;4988310;28;20458;-75
2023/09/12 01:12:29;;;;;;;40.43;30.30;;;19.80;1.00;;;;;;4992937;28;20463;-75
2023/09/12 01:15:08;;;;;;;;;;;;;;;;;;;;;
2023/09/12 01:25:07;;;;;;;;;;;;;;;;;;;;;
2023/09/12 01:34:50;;;;;;;45.77;30.10;;;19.90;1.00;;;;;;4977461;28;20449;-74
2023/09/12 01:37:16;;;;;;;39.87;28.47;;;19.90;1.00;;;;;;4975787;28;20429;-75
2023/09/12 01:39:42;;;;;;;44.97;27.80;;;20.00;1.00;;;;;;4977162;28;20405;-75
2023/09/12 01:46:57;;;;;;;;;;;;;;;;;;;;;
2023/09/12 01:52:44;;;;;;;;;;;;;;;;;;;;;
2023/09/12 02:18:58;;;;;;;39.43;24.07;;;20.00;1.00;;;;;;4976273;28;20424;-74
2023/09/12 02:35:21;;;;;;;33.63;22.93;;;20.00;1.00;;;;;;4975991;28;20811;-73
2023/09/12 02:37:50;;;;;;;35.57;22.97;;;20.10;1.00;;;;;;4957540;28;20429;-75
2023/09/12 02:40:36;;;;;;;36.80;22.40;;;20.00;1.00;;;;;;4976073;28;20397;-75
2023/09/12 02:43:35;;;;;;;34.10;23.30;;;20.00;1.00;;;;;;4975604;28;20436;-75
2023/09/12 02:52:31;;;;;;;34.97;24.53;;;20.10;1.00;;;;;;4916120;29;20422;-75
2023/09/12 02:55:03;;;;;;;34.93;23.07;;;20.00;1.00;;;;;;4992448;28;20503;-73
2023/09/12 03:01:13;;;;;;;36.97;22.30;;;20.00;1.00;;;;;;4975653;28;20416;-73
2023/09/12 03:03:39;;;;;;;31.63;21.00;;;20.00;1.00;;;;;;4958283;28;20790;-75
2023/09/12 03:06:20;;;;;;;38.90;22.93;;;19.90;1.00;;;;;;4957398;28;20456;-73
2023/09/12 03:08:47;;;;;;;32.90;20.93;;;19.90;1.00;;;;;;4958164;28;20762;-74
2023/09/12 03:11:13;;;;;;;32.23;20.07;;;19.90;1.00;;;;;;4975007;28;20413;-74
2023/09/12 03:14:32;;;;;;;33.03;20.57;;;19.90;1.00;;;;;;4975457;28;20421;-73
2023/09/12 03:16:58;;;;;;;25.30;19.53;;;19.90;1.00;;;;;;4988116;28;20492;-73
2023/09/12 03:19:24;;;;;;;23.20;18.93;;;20.00;1.00;;;;;;4977447;28;20424;-75
2023/09/12 03:21:50;;;;;;;28.37;20.30;;;20.00;1.00;;;;;;4977422;28;20940;-75
2023/09/12 03:24:21;;;;;;;28.03;19.80;;;20.00;1.00;;;;;;4994783;28;20495;-75
2023/09/12 03:27:11;;;;;;;31.30;21.30;;;20.00;1.00;;;;;;4985725;28;20460;-74
2023/09/12 03:29:37;;;;;;;25.33;19.07;;;20.00;1.00;;;;;;4994087;28;20881;-76
2023/09/12 03:32:47;;;;;;;26.70;18.83;;;20.00;1.00;;;;;;4994579;28;20412;-74
2023/09/12 03:35:47;;;;;;;34.73;20.93;;;20.00;1.00;;;;;;4972062;28;20192;-73
2023/09/12 03:38:16;;;;;;;30.37;18.90;;;20.00;1.00;;;;;;4994429;28;20435;-73
2023/09/12 03:41:17;;;;;;;32.00;20.63;;;20.00;1.00;;;;;;4977267;28;20444;-74
2023/09/12 03:43:54;;;;;;;29.53;19.73;;;19.90;1.00;;;;;;4992807;28;20780;-73
2023/09/12 03:46:30;;;;;;;;;;;;;;;;;;;;;
2023/09/12 03:49:50;;;;;;;;;;;;;;;;;;;;;
2023/09/12 04:06:28;;;;;;;34.70;21.50;;;19.80;1.00;;;;;;4971209;28;20393;-75
2023/09/12 04:08:54;;;;;;;33.77;22.60;;;19.80;1.00;;;;;;4991618;28;20424;-74
2023/09/12 04:14:51;;;;;;;34.37;22.77;;;19.80;1.00;;;;;;4991633;28;20479;-73
2023/09/12 04:17:25;;;;;;;36.07;22.57;;;19.80;1.00;;;;;;4987317;28;20554;-75
2023/09/12 04:20:29;;;;;;;38.87;23.90;;;19.70;1.00;;;;;;4983135;28;20428;-73
2023/09/12 04:22:55;;;;;;;35.23;23.50;;;19.70;1.00;;;;;;4956571;28;20436;-75
2023/09/12 04:31:22;;;;;;;38.13;25.00;;;19.80;1.00;;;;;;4933482;29;20417;-75
2023/09/12 04:33:50;;;;;;;34.87;22.77;;;19.70;1.00;;;;;;4968124;28;20910;-76
2023/09/12 04:36:19;;;;;;;34.70;24.07;;;19.70;1.00;;;;;;4973193;28;20409;-73
2023/09/12 04:38:53;;;;;;;36.73;23.47;;;19.70;1.00;;;;;;4981915;28;20431;-74
2023/09/12 04:41:37;;;;;;;33.33;22.00;;;19.70;1.00;;;;;;4993167;28;20956;-73
2023/09/12 05:01:11;;;;;;;46.07;26.57;;;19.80;1.00;;;;;;4990666;28;20435;-75
2023/09/12 05:30:53;;;;;;;59.03;30.67;;;19.80;1.00;;;;;;4996810;28;20416;-76
2023/09/12 05:40:45;;;;;;;53.17;30.63;;;19.80;1.00;;;;;;4996624;28;20474;-80
2023/09/12 05:56:51;;;;;;;49.07;30.20;;;19.90;1.00;;;;;;4900773;29;20472;-75
2023/09/12 05:59:22;;;;;;;50.13;30.30;;;19.90;1.00;;;;;;4932415;29;20418;-72
2023/09/12 06:01:48;;;;;;;45.33;28.77;;;19.90;1.00;;;;;;4981689;28;20439;-73
2023/09/12 06:04:14;;;;;;;45.33;29.90;;;20.00;1.00;;;;;;4996033;28;20404;-72
2023/09/12 06:06:41;;;;;;;46.73;29.20;;;20.00;1.00;;;;;;4995175;28;20963;-75
2023/09/12 06:09:25;;;;;;;48.80;31.10;;;20.00;1.00;;;;;;4996082;28;20161;-75
2023/09/12 06:11:57;;;;;;;42.13;29.73;;;20.00;1.00;;;;;;4995935;28;20503;-75
2023/09/12 06:14:45;;;;;;;48.60;30.60;;;20.00;1.00;;;;;;4995651;28;20410;-75
2023/09/12 06:24:43;;;;;;;46.33;30.33;;;19.90;1.00;;;;;;4995917;28;20400;-76
2023/09/12 06:27:10;;;;;;;43.20;28.53;;;20.00;1.00;;;;;;4958636;28;20548;-76
2023/09/12 06:36:44;;;;;;;47.20;28.53;;;20.00;1.00;;;;;;4930098;28;20407;-74
2023/09/12 06:39:13;;;;;;;50.93;30.13;;;20.00;1.00;;;;;;4935587;29;20399;-76
2023/09/12 06:41:39;;;;;;;41.37;29.07;;;20.10;1.00;;;;;;4935706;29;20463;-75
2023/09/12 06:44:58;;;;;;;47.90;28.90;;;20.00;1.00;;;;;;4971211;28;20773;-78
2023/09/12 06:47:27;;;;;;;42.50;29.47;;;20.10;1.00;;;;;;4915062;29;20566;-76
2023/09/12 06:50:03;;;;;;;50.40;30.67;;;20.20;1.00;;;;;;4916577;29;20416;-77
2023/09/12 06:55:58;;;;;;;48.00;30.43;;;20.40;1.00;;;;;;4974954;28;20408;-77
2023/09/12 06:58:43;;;;;;;51.23;29.80;;;20.50;1.00;;;;;;4975661;28;20431;-76
2023/09/12 07:05:17;;;;;;;44.07;29.23;;;20.60;1.00;;;;;;4975687;28;20396;-76
2023/09/12 07:09:16;;;;;;;;;;;;;;;;;;;;;
2023/09/12 07:24:15;;;;;;;41.40;27.43;;;20.50;1.00;;;;;;4897234;28;20410;-76
2023/09/12 07:27:23;;;;;;;44.53;26.70;;;20.50;1.00;;;;;;4976451;28;20455;-75
2023/09/12 07:30:26;;;;;;;39.37;26.90;;;20.50;1.00;;;;;;4974025;28;20423;-75
2023/09/12 07:33:26;;;;;;;42.60;25.90;;;20.50;1.00;;;;;;4994477;28;20432;-75
2023/09/12 07:35:55;;;;;;;41.03;26.47;;;20.60;1.00;;;;;;4954291;28;20416;-75
2023/09/12 07:42:54;;;;;;;42.27;26.03;;;20.70;1.00;;;;;;4994153;28;20427;-75
2023/09/12 07:48:46;;;;;;;42.50;26.80;;;20.80;1.00;;;;;;4916551;28;20502;-75
2023/09/12 07:51:28;;;;;;;38.20;24.73;;;21.00;1.00;;;;;;4915205;29;20411;-76
2023/09/12 07:57:37;;;;;;;35.13;23.30;;;21.20;1.00;;;;;;4857904;29;20556;-75
2023/09/12 08:06:48;;;;;;;37.13;22.90;;;21.10;1.00;;;;;;4992875;28;20515;-75
2023/09/12 08:09:24;;;;;;;36.17;24.10;;;21.20;1.00;;;;;;4993356;28;20481;-75
2023/09/12 08:11:50;;;;;;;36.30;25.17;;;21.20;1.00;;;;;;4993883;28;20404;-75
2023/09/12 08:14:16;;;;;;;34.80;24.63;;;21.20;1.00;;;;;;4993720;28;20412;-75
2023/09/12 08:20:24;;;;;;;33.57;23.57;;;21.20;1.00;;;;;;4963695;28;20483;-75
2023/09/12 08:29:55;;;;;;;25.37;21.03;;;21.60;99.90;;;;;;4993356;28;20932;-75
2023/09/12 08:32:30;;;;;;;28.83;20.90;;;21.70;99.90;;;;;;4992955;28;20420;-75
2023/09/12 08:35:06;;;;;;;30.03;20.20;;;21.80;99.90;;;;;;4976398;28;20443;-75
2023/09/12 08:37:32;;;;;;;29.93;19.60;;;21.90;99.90;;;;;;4975401;28;20427;-75
2023/09/12 08:40:00;;;;;;;21.60;16.70;;;21.90;99.90;;;;;;4993334;28;20406;-75
2023/09/12 08:42:29;;;;;;;22.30;17.90;;;21.90;99.90;;;;;;4975944;28;20265;-76
2023/09/12 08:44:55;;;;;;;22.97;16.27;;;22.00;99.90;;;;;;4993367;28;20445;-75
2023/09/12 08:47:52;;;;;;;28.07;17.97;;;22.10;99.90;;;;;;4991924;28;20532;-76
2023/09/12 08:50:23;;;;;;;24.43;18.30;;;22.30;99.90;;;;;;4988608;28;20243;-75
2023/09/12 08:52:51;;;;;;;25.73;16.30;;;22.40;99.90;;;;;;4993303;28;20400;-75
2023/09/12 08:55:17;;;;;;;22.77;18.57;;;22.60;99.90;;;;;;4975138;28;20511;-75
2023/09/12 08:58:11;;;;;;;24.53;18.53;;;22.70;99.90;;;;;;4993046;28;20503;-74
2023/09/12 09:00:53;;;;;;;18.50;16.40;;;22.60;99.90;;;;;;4975392;28;20650;-75
2023/09/12 09:06:08;;;;;;;21.93;17.90;;;22.40;99.90;;;;;;4970574;28;20437;-75
2023/09/12 09:08:44;;;;;;;;;;;;;;;;;;;;;
2023/09/12 09:11:18;;;;;;;19.60;17.00;;;22.20;99.90;;;;;;4993189;28;20412;-75
2023/09/12 09:13:44;;;;;;;20.63;17.07;;;22.20;99.90;;;;;;4993412;28;20412;-75
2023/09/12 09:16:18;;;;;;;30.83;18.87;;;22.20;99.90;;;;;;4992479;28;20411;-75
2023/09/12 09:19:09;;;;;;;21.33;19.20;;;22.20;99.90;;;;;;4993213;28;20169;-75
2023/09/12 09:21:36;;;;;;;22.83;19.33;;;22.30;99.90;;;;;;4993340;28;20495;-76
2023/09/12 09:24:10;;;;;;;22.63;18.03;;;22.40;99.90;;;;;;4992578;28;20462;-75
2023/09/12 09:27:07;;;;;;;24.13;18.00;;;22.50;99.90;;;;;;4992246;28;20540;-75
2023/09/12 09:29:46;;;;;;;19.40;15.50;;;22.60;99.90;;;;;;4993122;28;20396;-75
2023/09/12 09:32:18;;;;;;;18.80;15.00;;;22.60;99.90;;;;;;4993071;28;20404;-75
2023/09/12 09:35:28;;;;;;;14.20;12.67;;;22.70;99.90;;;;;;4993144;28;20404;-75
2023/09/12 09:37:54;;;;;;;18.07;14.17;;;22.90;99.90;;;;;;4973897;28;20436;-75
2023/09/12 09:40:22;;;;;;;15.50;12.10;;;23.10;99.90;;;;;;4993146;28;20443;-76
2023/09/12 09:42:58;;;;;;;14.30;12.27;;;23.20;96.90;;;;;;4992826;28;20202;-75
2023/09/12 09:45:24;;;;;;;14.03;11.10;;;23.10;82.40;;;;;;4991840;28;20800;-76
2023/09/12 09:47:51;;;;;;;16.23;10.90;;;22.90;67.70;;;;;;4975370;28;20460;-75
2023/09/12 09:50:26;;;;;;;;;;;;;;;;;;;;;
2023/09/12 09:53:01;;;;;;;12.63;11.07;;;22.70;63.10;;;;;;4995317;28;20403;-74
2023/09/12 09:55:55;;;;;;;11.57;10.47;;;22.70;61.90;;;;;;4995958;28;20399;-75
2023/09/12 09:58:23;;;;;;;11.43;9.20;;;22.80;63.20;;;;;;4996305;28;20465;-75
2023/09/12 10:01:00;;;;;;;9.47;8.57;;;22.90;42.60;;;;;;4995897;28;20474;-76
2023/09/12 10:07:06;;;;;;;11.60;10.50;;;23.10;33.60;;;;;;4954344;29;20512;-74
2023/09/12 10:09:49;;;;;;;12.03;10.27;;;23.20;34.40;;;;;;4917416;29;20486;-75
2023/09/12 10:12:15;;;;;;;10.67;9.67;;;23.20;30.50;;;;;;4990487;28;20893;-76
2023/09/12 10:14:43;;;;;;;11.03;10.00;;;23.40;30.70;;;;;;4996328;28;20412;-76
2023/09/12 10:17:12;;;;;;;10.33;8.70;;;23.60;22.40;;;;;;4977936;28;20432;-76
2023/09/12 10:19:54;;;;;;;10.60;9.50;;;23.90;10.10;;;;;;4978339;28;20443;-76
2023/09/12 10:22:45;;;;;;;11.97;10.40;;;24.00;1.00;;;;;;4996058;28;20885;-76
2023/09/12 10:25:12;;;;;;;10.20;8.73;;;24.00;1.00;;;;;;4995825;28;20420;-76
2023/09/12 10:27:38;;;;;;;12.43;9.67;;;24.10;1.00;;;;;;4995020;28;20499;-75
2023/09/12 10:30:05;;;;;;;14.07;10.30;;;23.90;1.00;;;;;;4996145;28;20563;-76
2023/09/12 10:32:32;;;;;;;10.83;9.77;;;23.90;1.00;;;;;;4995922;28;20389;-75
2023/09/12 10:34:59;;;;;;;12.40;9.63;;;23.80;1.00;;;;;;4995928;28;20407;-76
2023/09/12 10:37:26;;;;;;;14.90;8.70;;;23.80;1.00;;;;;;4994499;28;20916;-76
2023/09/12 10:40:16;;;;;;;10.80;8.30;;;23.60;1.00;;;;;;4995492;28;20436;-76
2023/09/12 10:42:43;;;;;;;15.87;11.20;;;23.60;1.00;;;;;;4995062;28;20444;-76
2023/09/12 10:45:10;;;;;;;8.43;7.47;;;23.70;1.00;;;;;;4995555;28;20392;-76
2023/09/12 10:47:37;;;;;;;9.53;7.90;;;23.70;1.00;;;;;;4994649;28;21015;-76
2023/09/12 10:50:03;;;;;;;9.53;7.53;;;23.60;1.00;;;;;;4995687;28;20407;-74
2023/09/12 10:52:29;;;;;;;9.53;8.50;;;23.60;1.00;;;;;;4995495;28;20400;-76
2023/09/12 10:54:59;;;;;;;11.50;8.30;;;23.60;1.00;;;;;;4995357;28;20963;-75
2023/09/12 11:03:27;;;;;;;7.30;6.60;;;23.90;1.00;;;;;;4932088;28;20423;-75
2023/09/12 11:05:55;;;;;;;7.17;6.50;;;24.20;1.00;;;;;;4976910;28;20424;-77
2023/09/12 11:08:20;;;;;;;6.67;6.00;;;24.50;1.00;;;;;;4995032;28;20872;-74
2023/09/12 11:11:25;;;;;;;7.80;7.10;;;24.40;1.00;;;;;;4995124;28;20408;-76
2023/09/12 11:14:04;;;;;;;6.93;6.30;;;24.20;1.00;;;;;;4938393;29;20173;-74
2023/09/12 11:16:30;;;;;;;8.13;6.53;;;24.10;1.00;;;;;;4952642;29;20534;-74
2023/09/12 11:19:44;;;;;;;9.13;6.47;;;24.00;1.00;;;;;;4977061;28;20948;-75
2023/09/12 11:22:35;;;;;;;10.07;8.10;;;23.80;1.00;;;;;;4976262;28;20442;-77
2023/09/12 11:25:05;;;;;;;8.80;7.50;;;23.80;1.00;;;;;;4994814;28;20408;-76
2023/09/12 11:27:46;;;;;;;6.33;5.73;;;24.00;1.00;;;;;;4993978;28;20514;-75
2023/09/12 11:30:15;;;;;;;12.43;7.80;;;24.10;1.00;;;;;;4994946;28;20447;-74
2023/09/12 11:32:45;;;;;;;6.93;6.30;;;24.20;1.00;;;;;;4994971;28;20405;-74
2023/09/12 11:35:11;;;;;;;7.83;6.90;;;24.50;1.00;;;;;;4994019;28;20933;-75
2023/09/12 11:37:37;;;;;;;6.77;6.17;;;24.70;1.00;;;;;;4993795;28;20463;-75
2023/09/12 11:40:12;;;;;;;8.20;7.20;;;25.00;1.00;;;;;;4994865;28;20169;-76
2023/09/12 11:42:43;;;;;;;8.40;7.43;;;25.00;1.00;;;;;;4977285;28;20188;-74
2023/09/12 11:45:10;;;;;;;12.83;8.23;;;24.90;1.00;;;;;;4994195;28;20475;-76
2023/09/12 11:47:42;;;;;;;9.87;7.87;;;24.80;1.00;;;;;;4993667;28;20490;-75
2023/09/12 11:50:27;;;;;;;12.93;8.97;;;24.90;1.00;;;;;;4977213;28;20423;-76
2023/09/12 11:53:12;;;;;;;11.40;8.47;;;25.00;1.00;;;;;;4976965;28;20855;-76
2023/09/12 11:55:47;;;;;;;11.40;8.37;;;25.00;1.00;;;;;;4992935;28;20754;-74
2023/09/12 11:58:17;;;;;;;14.47;9.53;;;24.90;1.00;;;;;;4994314;28;20501;-75
2023/09/12 12:00:46;;;;;;;12.80;9.97;;;24.80;1.00;;;;;;4994286;28;20829;-76
2023/09/12 12:03:14;;;;;;;12.07;10.87;;;24.50;1.00;;;;;;4994070;28;20419;-77
2023/09/12 12:05:43;;;;;;;13.10;11.20;;;24.20;1.00;;;;;;4993272;28;20932;-76
2023/09/12 12:08:10;;;;;;;13.63;10.33;;;24.00;1.00;;;;;;4994078;28;20468;-76
2023/09/12 12:10:38;;;;;;;13.70;12.23;;;24.00;1.00;;;;;;4976682;28;20408;-77
2023/09/12 12:13:05;;;;;;;14.73;11.43;;;23.90;1.00;;;;;;4993471;28;20413;-77
2023/09/12 12:15:30;;;;;;;11.70;10.17;;;23.80;1.00;;;;;;4992676;28;20813;-77
2023/09/12 12:17:56;;;;;;;23.47;11.27;;;23.80;1.00;;;;;;4993949;28;20481;-77
2023/09/12 12:20:23;;;;;;;15.20;11.90;;;23.80;1.00;;;;;;4993768;28;20169;-75
2023/09/12 12:22:51;;;;;;;14.20;11.37;;;23.80;1.00;;;;;;4993999;28;20415;-74
2023/09/12 12:25:17;;;;;;;13.67;12.23;;;23.80;1.00;;;;;;4992941;28;20494;-76
2023/09/12 12:27:43;;;;;;;11.73;10.10;;;23.80;1.00;;;;;;4976035;28;20498;-75
2023/09/12 12:30:12;;;;;;;15.07;12.40;;;23.80;1.00;;;;;;4993651;28;20396;-76
2023/09/12 12:32:50;;;;;;;13.57;11.80;;;23.80;1.00;;;;;;4993411;28;20405;-75
2023/09/12 12:35:20;;;;;;;11.40;10.30;;;23.90;1.00;;;;;;4992919;28;20404;-75
2023/09/12 12:37:49;;;;;;;18.03;11.83;;;24.10;1.00;;;;;;4985477;28;20566;-74
2023/09/12 12:40:15;;;;;;;16.67;12.70;;;24.20;1.00;;;;;;4993511;28;20404;-75
2023/09/12 12:42:42;;;;;;;14.67;12.90;;;24.10;1.00;;;;;;4993567;28;20424;-76
2023/09/12 12:45:14;;;;;;;19.00;14.20;;;24.20;1.00;;;;;;4993386;28;20400;-75
2023/09/12 12:47:41;;;;;;;15.80;13.10;;;24.20;1.00;;;;;;4992663;28;20472;-77
2023/09/12 12:50:22;;;;;;;14.63;12.27;;;24.20;1.00;;;;;;4993316;28;20400;-78
2023/09/12 12:52:49;;;;;;;14.43;12.73;;;24.30;1.00;;;;;;4993629;28;20483;-75
2023/09/12 12:55:17;;;;;;;14.97;12.63;;;24.30;1.00;;;;;;4993058;28;20419;-76
2023/09/12 12:57:44;;;;;;;12.73;10.63;;;24.10;1.00;;;;;;4993122;28;20428;-75
2023/09/12 13:00:11;;;;;;;15.70;13.47;;;24.00;1.00;;;;;;4993472;28;20410;-77
2023/09/12 13:02:38;;;;;;;16.83;12.23;;;23.90;1.00;;;;;;4993489;28;20407;-77
2023/09/12 13:05:20;;;;;;;14.63;12.83;;;24.00;1.00;;;;;;4993413;28;20496;-75
2023/09/12 13:07:46;;;;;;;18.60;12.00;;;24.00;1.00;;;;;;4992808;28;20463;-76
2023/09/12 13:10:12;;;;;;;13.80;12.40;;;23.80;1.00;;;;;;4993200;28;20407;-75
2023/09/12 13:12:38;;;;;;;14.83;12.77;;;23.90;1.00;;;;;;4975924;28;20229;-75
2023/09/12 13:15:05;;;;;;;14.00;12.47;;;23.80;1.00;;;;;;4975633;28;20183;-74
2023/09/12 13:17:31;;;;;;;19.43;11.87;;;23.80;1.00;;;;;;4974618;28;20197;-75
2023/09/12 13:20:00;;;;;;;15.30;12.10;;;23.80;1.00;;;;;;4993148;28;20410;-76
2023/09/12 13:22:28;;;;;;;19.80;11.70;;;23.70;1.00;;;;;;4976013;28;20420;-76
2023/09/12 13:24:54;;;;;;;12.33;9.50;;;23.70;1.00;;;;;;4993187;28;20408;-77
2023/09/12 13:27:20;;;;;;;10.57;9.60;;;23.80;1.00;;;;;;4993728;28;20547;-77
2023/09/12 13:29:47;;;;;;;11.67;10.47;;;24.10;1.00;;;;;;4996506;28;20176;-77
2023/09/12 13:32:15;;;;;;;11.40;8.70;;;24.60;1.00;;;;;;4996887;28;20428;-76
2023/09/12 13:34:41;;;;;;;14.03;10.37;;;25.20;1.00;;;;;;4996832;28;20404;-77
2023/09/12 13:37:06;;;;;;;11.53;9.80;;;26.10;1.00;;;;;;4996109;28;20435;-72
2023/09/12 13:39:32;;;;;;;16.40;10.40;;;26.60;1.00;;;;;;4996677;28;20200;-72
2023/09/12 13:42:01;;;;;;;12.30;10.40;;;26.50;1.00;;;;;;4996661;28;20173;-76
2023/09/12 13:44:27;;;;;;;10.70;9.23;;;26.20;1.00;;;;;;4996885;28;20169;-77
2023/09/12 13:46:53;;;;;;;12.30;10.83;;;25.70;1.00;;;;;;4995112;28;20467;-74
2023/09/12 13:49:19;;;;;;;12.67;10.80;;;25.40;1.00;;;;;;4996675;28;20719;-76
2023/09/12 13:51:45;;;;;;;13.23;11.83;;;25.40;1.00;;;;;;4979297;28;20165;-76
2023/09/12 13:54:14;;;;;;;13.60;9.23;;;25.40;1.00;;;;;;4996404;28;20165;-77
2023/09/12 13:56:44;;;;;;;10.67;9.60;;;25.50;1.00;;;;;;4995505;28;20487;-77
2023/09/12 13:59:11;;;;;;;13.30;8.33;;;25.90;1.00;;;;;;4996648;28;20414;-73
2023/09/12 14:01:37;;;;;;;12.80;9.57;;;26.50;1.00;;;;;;4996566;28;20408;-77
2023/09/12 14:04:03;;;;;;;8.53;7.73;;;27.00;1.00;;;;;;4995685;28;20418;-73
2023/09/12 14:06:29;;;;;;;10.00;9.07;;;27.20;1.00;;;;;;4995357;28;20615;-71
2023/09/12 14:08:55;;;;;;;9.67;8.67;;;27.00;1.00;;;;;;4995017;28;20510;-77
2023/09/12 14:11:20;;;;;;;10.23;9.27;;;26.60;1.00;;;;;;4996240;28;20174;-77
2023/09/12 14:13:47;;;;;;;10.30;8.13;;;26.60;1.00;;;;;;4995473;28;20173;-76
2023/09/12 14:16:13;;;;;;;9.13;8.23;;;26.50;1.00;;;;;;4994893;28;20168;-76
2023/09/12 14:18:39;;;;;;;14.27;12.70;;;26.20;1.00;;;;;;4978758;28;20782;-73
2023/09/12 14:21:04;;;;;;;11.83;10.73;;;25.80;1.00;;;;;;4995397;28;20633;-73
2023/09/12 14:23:30;;;;;;;10.90;9.80;;;25.50;1.00;;;;;;4978366;28;20180;-77
2023/09/12 14:25:56;;;;;;;10.97;9.57;;;25.40;1.00;;;;;;4995139;28;20161;-75
2023/09/12 14:28:22;;;;;;;12.93;11.47;;;25.40;1.00;;;;;;4995938;28;20260;-73
2023/09/12 14:30:49;;;;;;;10.97;9.77;;;25.30;1.00;;;;;;4995944;28;20173;-73
2023/09/12 14:33:15;;;;;;;13.50;10.73;;;25.20;1.00;;;;;;4995980;28;20165;-76
2023/09/12 14:35:41;;;;;;;11.70;8.37;;;25.60;1.00;;;;;;4995061;28;20411;-76
2023/09/12 14:38:07;;;;;;;10.00;8.87;;;26.80;1.00;;;;;;4994631;28;20196;-77
2023/09/12 14:40:34;;;;;;;9.83;8.87;;;28.10;1.00;;;;;;4995789;28;20817;-77
2023/09/12 14:43:00;;;;;;;8.33;7.53;;;29.10;1.00;;;;;;4995666;28;20452;-73
2023/09/12 14:45:27;;;;;;;10.13;9.17;;;29.50;1.00;;;;;;4994835;28;21245;-73
2023/09/12 14:47:55;;;;;;;9.77;8.73;;;29.40;1.00;;;;;;4995563;28;20205;-76
2023/09/12 14:50:23;;;;;;;10.40;9.40;;;29.00;1.00;;;;;;4995562;28;20491;-72
2023/09/12 14:52:52;;;;;;;9.67;8.60;;;28.20;1.00;;;;;;4995644;28;20399;-77
2023/09/12 14:55:18;;;;;;;11.50;9.67;;;27.50;1.00;;;;;;4994208;28;20404;-76
2023/09/12 14:57:44;;;;;;;9.80;8.23;;;27.00;1.00;;;;;;4995377;28;20451;-77
2023/09/12 15:00:11;;;;;;;9.43;7.10;;;26.30;1.00;;;;;;4995349;28;20252;-76
2023/09/12 15:02:37;;;;;;;10.73;7.53;;;25.80;1.00;;;;;;4995260;28;20172;-73
2023/09/12 15:05:06;;;;;;;6.60;6.00;;;25.50;1.00;;;;;;4995387;28;20416;-77
2023/09/12 15:07:33;;;;;;;9.80;7.90;;;25.50;1.00;;;;;;4994407;28;20455;-73
2023/09/12 15:09:59;;;;;;;8.70;7.90;;;25.40;1.00;;;;;;4977614;28;20787;-77
2023/09/12 15:12:25;;;;;;;8.53;7.70;;;25.40;1.00;;;;;;4995273;28;20543;-73
2023/09/12 15:14:51;;;;;;;8.97;8.07;;;25.10;1.00;;;;;;4994439;28;20184;-77
2023/09/12 15:17:20;;;;;;;12.00;7.63;;;25.10;1.00;;;;;;4976509;28;20944;-73
2023/09/12 15:19:46;;;;;;;10.00;8.10;;;25.10;1.00;;;;;;4995057;28;20491;-77
2023/09/12 15:22:13;;;;;;;11.30;9.40;;;25.10;1.00;;;;;;4994853;28;20415;-77
2023/09/12 15:24:42;;;;;;;9.13;7.50;;;25.10;1.00;;;;;;4994833;28;20467;-73
2023/09/12 15:27:08;;;;;;;11.70;8.43;;;25.10;1.00;;;;;;4993955;28;20460;-76
2023/09/12 15:29:34;;;;;;;7.93;7.13;;;25.10;1.00;;;;;;4994790;28;20487;-72
2023/09/12 15:32:03;;;;;;;11.73;8.00;;;25.10;1.00;;;;;;4994758;28;20413;-77
2023/09/12 15:34:28;;;;;;;9.43;8.53;;;25.30;1.00;;;;;;4976714;28;20856;-76
2023/09/12 15:37:11;;;;;;;9.10;8.20;;;25.10;1.00;;;;;;5008739;28;20495;-76
2023/09/12 15:39:38;;;;;;;12.13;10.80;;;25.20;1.00;;;;;;4996914;28;20184;-76
2023/09/12 15:42:04;;;;;;;11.00;10.03;;;25.10;1.00;;;;;;5013998;28;20404;-74
2023/09/12 15:44:30;;;;;;;10.07;9.17;;;24.90;1.00;;;;;;5014109;28;20485;-76
2023/09/12 15:46:59;;;;;;;10.00;8.97;;;24.90;1.00;;;;;;5012955;28;20454;-74
2023/09/12 15:49:25;;;;;;;8.23;7.53;;;24.80;1.00;;;;;;5013213;28;20454;-76
2023/09/12 15:51:51;;;;;;;8.73;7.87;;;24.60;1.00;;;;;;5013622;28;20490;-75
2023/09/12 15:54:17;;;;;;;9.90;8.90;;;24.50;1.00;;;;;;5014037;28;20399;-76
2023/09/12 15:56:43;;;;;;;10.33;7.53;;;24.30;1.00;;;;;;5013008;28;20478;-75
2023/09/12 15:59:09;;;;;;;9.70;8.80;;;24.20;1.00;;;;;;5013914;28;20207;-74
2023/09/12 16:01:34;;;;;;;9.70;8.70;;;24.00;1.00;;;;;;5013559;28;20979;-73
2023/09/12 16:04:00;;;;;;;8.67;7.77;;;24.00;1.00;;;;;;4983146;28;20689;-76
2023/09/12 16:06:35;;;;;;;8.20;7.00;;;24.00;1.00;;;;;;4992914;28;20200;-73
2023/09/12 16:09:02;;;;;;;8.00;7.20;;;23.90;1.00;;;;;;4993392;28;20197;-74
2023/09/12 16:11:28;;;;;;;9.50;8.57;;;23.80;1.00;;;;;;4993404;28;20904;-75
2023/09/12 16:13:53;;;;;;;12.60;9.33;;;23.70;1.00;;;;;;4976554;28;20568;-75
2023/09/12 16:16:21;;;;;;;12.83;9.10;;;23.60;1.00;;;;;;4993019;28;20625;-73
2023/09/12 16:18:46;;;;;;;10.60;9.03;;;23.50;1.00;;;;;;4993860;28;20180;-74
2023/09/12 16:21:49;;;;;;;11.30;9.87;;;23.50;1.00;;;;;;4993528;28;20404;-74
2023/09/12 16:24:23;;;;;;;9.83;8.83;;;23.40;1.00;;;;;;4993687;28;20153;-73
2023/09/12 16:26:49;;;;;;;10.47;8.90;;;23.20;1.00;;;;;;4992741;28;20486;-74
2023/09/12 16:29:14;;;;;;;8.70;7.80;;;23.10;1.00;;;;;;4992630;28;20419;-75
2023/09/12 16:31:40;;;;;;;7.43;6.73;;;23.10;1.00;;;;;;4993440;28;20173;-75
2023/09/12 16:34:15;;;;;;;9.63;8.83;;;23.20;1.00;;;;;;4993728;28;20168;-75
2023/09/12 16:36:41;;;;;;;8.60;7.57;;;23.30;1.00;;;;;;4992646;28;20207;-72
2023/09/12 16:39:07;;;;;;;9.87;8.97;;;23.40;1.00;;;;;;4993635;28;20955;-72
2023/09/12 16:41:45;;;;;;;8.00;7.30;;;23.40;1.00;;;;;;4993680;28;20169;-73
2023/09/12 16:44:11;;;;;;;11.03;8.67;;;23.40;1.00;;;;;;4993547;28;20427;-76
2023/09/12 16:47:09;;;;;;;9.07;8.17;;;23.30;1.00;;;;;;4991648;28;20459;-76
2023/09/12 16:49:38;;;;;;;9.73;8.80;;;23.30;1.00;;;;;;4985909;28;20191;-76
2023/09/12 16:52:09;;;;;;;13.53;9.60;;;23.20;1.00;;;;;;4993693;28;20444;-73
2023/09/12 16:55:13;;;;;;;10.67;8.10;;;23.20;1.00;;;;;;4993510;28;20496;-76
2023/09/12 16:57:40;;;;;;;8.90;7.90;;;23.10;1.00;;;;;;4913838;29;20519;-73
2023/09/12 17:00:08;;;;;;;11.60;8.50;;;23.10;1.00;;;;;;4933595;29;20427;-76
2023/09/12 17:02:37;;;;;;;7.70;7.10;;;23.20;1.00;;;;;;4966133;28;20821;-76
2023/09/12 17:05:04;;;;;;;10.83;8.33;;;23.10;1.00;;;;;;4996937;28;20825;-74
2023/09/12 17:07:31;;;;;;;13.03;8.60;;;23.00;1.00;;;;;;4978463;28;20467;-74
2023/09/12 17:10:29;;;;;;;12.23;11.03;;;23.00;1.00;;;;;;4980086;28;20459;-73
2023/09/12 17:12:55;;;;;;;15.80;10.90;;;23.00;1.00;;;;;;4995216;28;20427;-74
2023/09/12 17:15:25;;;;;;;10.53;9.03;;;23.00;1.00;;;;;;4996433;28;20422;-73
2023/09/12 17:17:51;;;;;;;12.33;9.73;;;23.00;1.00;;;;;;4997182;28;20224;-78
2023/09/12 17:20:17;;;;;;;11.47;10.33;;;23.00;1.00;;;;;;4997066;28;20415;-74
2023/09/12 17:23:04;;;;;;;;;;;;;;;;;;;;;
2023/09/12 17:25:31;;;;;;;9.20;8.37;;;23.00;1.00;;;;;;4995327;28;20634;-75
2023/09/12 17:27:57;;;;;;;9.13;8.23;;;22.90;1.00;;;;;;4996845;28;20472;-74
2023/09/12 17:30:23;;;;;;;10.53;9.43;;;22.80;1.00;;;;;;4997064;28;20486;-74
2023/09/12 17:32:49;;;;;;;10.60;9.30;;;22.70;1.00;;;;;;4997115;28;20219;-74
2023/09/12 17:35:15;;;;;;;10.07;9.10;;;22.60;1.00;;;;;;4996377;28;20173;-75
2023/09/12 17:37:41;;;;;;;13.80;10.50;;;22.50;1.00;;;;;;4996684;28;20547;-76
2023/09/12 17:40:08;;;;;;;18.40;13.00;;;22.50;1.00;;;;;;4997030;28;20796;-75
2023/09/12 17:42:34;;;;;;;8.90;8.00;;;22.50;1.00;;;;;;4996754;28;20211;-76
2023/09/12 17:45:00;;;;;;;10.37;8.50;;;22.30;1.00;;;;;;4995915;28;20957;-74
2023/09/12 17:47:30;;;;;;;10.00;9.10;;;22.20;1.00;;;;;;4996187;28;20454;-74